Weather at Ouallam Airport

Public forecast

Using degrees Celsius for public forecast. Weather courtesy of forecast.io.

Closest aviation weather report (METAR) to Ouallam Airport

Closest report is Diori Hamani International Airport, 52.9 nm (98.0 km) S.

2024/07/19 08:00 (retrieved 1 hour ago)

DRRN 190800Z 26016KT CAVOK 29/23 Q1013 NOSIG

Closest aviation forecast (TAF) to Ouallam Airport

Closest forecast is Diori Hamani International Airport, 52.9 nm (98.0 km) S.

2024/07/19 06:22 (retrieved 3 hours ago)

TAF DRRN 190500Z 1906/2012 24008KT 9999 FEW020 BECMG 1916/1918 TS SCT030CB TEMPO 1919/1924 10030G45KT 0300 SQ DS +TSRA BKN020 FM200200 20010KT 9999 FEW020